createdAt,value
2019-02-17T00:02:07.171Z,11.27
2019-02-17T00:04:38.566Z,12.43
2019-02-17T00:07:13.479Z,12.07
2019-02-17T00:09:51.880Z,13.70
2019-02-17T00:12:26.080Z,13.10
2019-02-17T00:14:57.124Z,12.63
2019-02-17T00:17:32.478Z,14.33
2019-02-17T00:20:05.204Z,13.40
2019-02-17T00:22:37.962Z,12.50
2019-02-17T00:25:09.126Z,12.23
2019-02-17T00:27:42.042Z,15.10
2019-02-17T00:30:18.869Z,13.30
2019-02-17T00:32:52.206Z,12.53
2019-02-17T00:35:25.618Z,14.23
2019-02-17T00:38:14.238Z,13.40
2019-02-17T00:40:46.160Z,13.50
2019-02-17T00:43:23.338Z,14.20
2019-02-17T00:45:58.615Z,14.03
2019-02-17T00:48:29.664Z,13.53
2019-02-17T00:51:03.497Z,12.23
2019-02-17T00:53:40.093Z,13.57
2019-02-17T00:56:12.590Z,14.53
2019-02-17T00:58:51.213Z,14.97
2019-02-17T01:01:30.554Z,13.20
2019-02-17T01:04:04.340Z,14.13
2019-02-17T01:06:36.470Z,15.27
2019-02-17T01:09:09.804Z,13.40
2019-02-17T01:11:44.208Z,14.07
2019-02-17T01:14:18.311Z,14.87
2019-02-17T01:16:51.278Z,13.60
2019-02-17T01:19:22.857Z,12.90
2019-02-17T01:22:04.687Z,12.10
2019-02-17T01:24:37.359Z,13.80
2019-02-17T01:27:11.255Z,14.27
2019-02-17T01:29:46.130Z,15.40
2019-02-17T01:32:19.781Z,13.20
2019-02-17T01:34:55.174Z,13.00
2019-02-17T01:37:29.338Z,11.20
2019-02-17T01:40:05.102Z,13.27
2019-02-17T01:42:41.949Z,15.37
2019-02-17T01:45:13.862Z,13.37
2019-02-17T01:47:44.868Z,12.80
2019-02-17T01:50:17.157Z,12.63
2019-02-17T01:52:51.784Z,12.37
2019-02-17T01:55:26.979Z,11.93
2019-02-17T01:57:58.200Z,12.47
2019-02-17T02:00:30.893Z,10.53
2019-02-17T02:03:07.263Z,12.20
2019-02-17T02:05:42.793Z,11.77
2019-02-17T02:08:15.990Z,12.90
2019-02-17T02:10:45.860Z,11.73
2019-02-17T02:13:16.509Z,11.00
2019-02-17T02:15:49.428Z,10.60
2019-02-17T02:18:22.721Z,13.47
2019-02-17T02:20:56.318Z,13.73
2019-02-17T02:23:26.794Z,13.03
2019-02-17T02:25:59.418Z,13.67
2019-02-17T02:28:37.542Z,15.77
2019-02-17T02:31:05.667Z,15.60
2019-02-17T02:33:37.378Z,14.97
2019-02-17T02:36:07.015Z,16.20
2019-02-17T02:38:41.615Z,17.93
2019-02-17T02:41:16.241Z,17.87
2019-02-17T02:43:51.003Z,15.27
2019-02-17T02:46:23.335Z,17.23
2019-02-17T02:48:56.151Z,16.60
2019-02-17T02:51:31.601Z,15.23
2019-02-17T02:54:03.123Z,15.07
2019-02-17T02:56:36.346Z,17.53
2019-02-17T02:59:08.685Z,19.00
2019-02-17T03:01:40.370Z,19.93
2019-02-17T03:04:13.226Z,17.73
2019-02-17T03:06:52.658Z,17.20
2019-02-17T03:09:24.144Z,18.73
2019-02-17T03:11:54.645Z,19.27
2019-02-17T03:14:24.714Z,18.20
2019-02-17T03:17:02.269Z,17.97
2019-02-17T03:19:34.043Z,18.63
2019-02-17T03:22:07.570Z,15.80
2019-02-17T03:24:40.431Z,20.40
2019-02-17T03:27:15.018Z,15.43
2019-02-17T03:29:46.871Z,15.50
2019-02-17T03:32:18.372Z,14.67
2019-02-17T03:34:51.416Z,15.10
2019-02-17T03:37:25.779Z,15.00
2019-02-17T03:39:56.010Z,15.93
2019-02-17T03:42:25.968Z,16.77
2019-02-17T03:45:01.324Z,16.00
2019-02-17T03:47:34.408Z,15.53
2019-02-17T03:50:08.585Z,15.13
2019-02-17T03:52:49.537Z,15.23
2019-02-17T03:55:33.073Z,15.53
2019-02-17T03:58:06.203Z,15.43
2019-02-17T04:00:53.034Z,17.87
2019-02-17T04:03:33.602Z,15.23
2019-02-17T04:06:04.095Z,16.33
2019-02-17T04:08:35.505Z,19.77
2019-02-17T04:11:08.371Z,17.60
2019-02-17T04:13:39.340Z,18.40
2019-02-17T04:16:15.495Z,18.00
2019-02-17T04:18:49.953Z,18.47
2019-02-17T04:21:21.935Z,18.67
2019-02-17T04:23:57.393Z,18.97
2019-02-17T04:26:30.254Z,17.23
2019-02-17T04:29:04.513Z,17.37
2019-02-17T04:31:38.163Z,16.40
2019-02-17T04:34:15.985Z,20.07
2019-02-17T04:36:44.049Z,18.50
2019-02-17T04:39:16.481Z,16.57
2019-02-17T04:42:02.435Z,15.77
2019-02-17T04:44:30.113Z,16.60
2019-02-17T04:46:59.923Z,19.60
2019-02-17T04:49:31.705Z,18.67
2019-02-17T04:52:02.084Z,16.70
2019-02-17T04:54:35.349Z,17.43
2019-02-17T04:57:07.496Z,16.67
2019-02-17T04:59:38.795Z,15.37
2019-02-17T05:02:10.753Z,16.07
2019-02-17T05:04:43.642Z,19.77
2019-02-17T05:07:15.441Z,17.50
2019-02-17T05:09:47.547Z,16.37
2019-02-17T05:12:19.045Z,17.27
2019-02-17T05:14:48.877Z,12.97
2019-02-17T05:17:18.769Z,10.60
2019-02-17T05:19:52.022Z,10.43
2019-02-17T05:22:23.613Z,12.30
2019-02-17T05:24:59.745Z,10.63
2019-02-17T05:27:33.224Z,12.77
2019-02-17T05:30:07.563Z,10.63
2019-02-17T05:32:39.353Z,11.93
2019-02-17T05:35:11.846Z,10.57
2019-02-17T05:37:48.917Z,11.50
2019-02-17T05:40:18.799Z,14.03
2019-02-17T05:42:50.759Z,17.23
2019-02-17T05:45:22.782Z,12.30
2019-02-17T05:47:52.640Z,10.33
2019-02-17T05:50:26.243Z,10.43
2019-02-17T05:53:01.982Z,11.27
2019-02-17T05:55:36.559Z,12.60
2019-02-17T05:58:08.608Z,13.83
2019-02-17T06:00:43.251Z,15.23
2019-02-17T06:03:12.913Z,14.03
2019-02-17T06:05:45.115Z,13.10
2019-02-17T06:08:15.503Z,10.93
2019-02-17T06:10:45.951Z,15.33
2019-02-17T06:13:19.897Z,14.13
2019-02-17T06:15:55.115Z,12.87
2019-02-17T06:18:29.503Z,9.97
2019-02-17T06:21:08.210Z,15.37
2019-02-17T06:23:45.614Z,10.40
2019-02-17T06:26:22.555Z,9.23
2019-02-17T06:28:55.304Z,8.80
2019-02-17T06:31:29.272Z,8.03
2019-02-17T06:34:02.115Z,8.40
2019-02-17T06:36:34.195Z,9.63
2019-02-17T06:42:15.876Z,9.47
2019-02-17T06:44:51.796Z,8.50
2019-02-17T06:47:27.990Z,9.60
2019-02-17T06:49:59.019Z,12.83
2019-02-17T06:52:36.472Z,10.10
2019-02-17T06:55:11.559Z,8.30
2019-02-17T06:57:44.629Z,7.97
2019-02-17T07:00:17.129Z,10.20
2019-02-17T07:02:52.975Z,14.37
2019-02-17T07:05:46.591Z,11.23
2019-02-17T07:08:19.231Z,9.20
2019-02-17T07:10:51.961Z,10.27
2019-02-17T07:13:26.147Z,8.87
2019-02-17T07:15:59.281Z,9.90
2019-02-17T07:18:38.928Z,10.23
2019-02-17T07:21:26.091Z,8.10
2019-02-17T07:24:03.909Z,12.23
2019-02-17T07:26:33.765Z,8.83
2019-02-17T07:29:07.139Z,10.03
2019-02-17T07:31:41.874Z,9.10
2019-02-17T07:34:21.558Z,8.30
2019-02-17T07:36:57.487Z,9.03
2019-02-17T07:39:40.723Z,10.60
2019-02-17T07:42:13.872Z,9.90
2019-02-17T07:44:46.510Z,8.90
2019-02-17T07:47:20.618Z,9.70
2019-02-17T07:49:51.803Z,8.37
2019-02-17T07:52:34.358Z,7.80
2019-02-17T07:55:14.502Z,10.10
2019-02-17T07:57:51.482Z,7.60
2019-02-17T08:00:23.027Z,7.80
2019-02-17T08:02:52.923Z,7.13
2019-02-17T08:05:27.470Z,8.43
2019-02-17T08:07:58.447Z,9.27
2019-02-17T08:10:32.743Z,12.40
2019-02-17T08:13:13.631Z,13.30
2019-02-17T08:15:48.867Z,11.37
2019-02-17T08:18:27.511Z,12.83
2019-02-17T08:21:11.352Z,13.47
2019-02-17T08:23:43.518Z,10.63
2019-02-17T08:26:25.407Z,12.53
2019-02-17T08:28:57.577Z,11.00
2019-02-17T08:31:29.467Z,11.67
2019-02-17T08:34:00.667Z,10.17
2019-02-17T08:36:53.422Z,10.93
2019-02-17T08:39:26.011Z,8.50
2019-02-17T08:42:06.759Z,11.93
2019-02-17T08:44:46.383Z,12.47
2019-02-17T08:47:24.370Z,11.03
2019-02-17T08:50:03.285Z,13.07
2019-02-17T08:52:51.272Z,9.97
2019-02-17T08:55:33.377Z,8.73
2019-02-17T08:58:13.270Z,9.77
2019-02-17T09:00:45.747Z,11.63
2019-02-17T09:03:18.309Z,10.83
2019-02-17T09:05:50.121Z,9.57
2019-02-17T09:08:29.069Z,11.00
2019-02-17T09:11:05.887Z,11.37
2019-02-17T09:14:09.830Z,11.60
2019-02-17T09:16:58.158Z,13.80
2019-02-17T09:19:55.883Z,11.53
2019-02-17T09:22:51.306Z,15.13
2019-02-17T09:25:53.982Z,10.60
2019-02-17T09:28:08.711Z,14.50
2019-02-17T09:33:24.265Z,12.37
2019-02-17T09:42:25.508Z,11.90
2019-02-17T09:48:24.305Z,9.37
2019-02-17T09:54:12.494Z,8.73
2019-02-17T10:06:44.875Z,9.23
2019-02-17T10:09:21.667Z,8.87
2019-02-17T10:11:57.172Z,7.73
2019-02-17T10:14:31.873Z,10.87
2019-02-17T10:17:12.998Z,11.80
2019-02-17T10:19:44.732Z,7.50
2019-02-17T10:22:42.400Z,7.93
2019-02-17T10:25:03.898Z,9.43
2019-02-17T10:27:35.334Z,11.57
2019-02-17T10:30:08.105Z,11.23
2019-02-17T10:32:40.610Z,7.97
2019-02-17T10:35:14.834Z,9.37
2019-02-17T10:37:54.946Z,10.60
2019-02-17T10:40:25.764Z,8.17
2019-02-17T10:43:03.593Z,6.17
2019-02-17T10:45:36.651Z,5.63
2019-02-17T10:48:07.997Z,8.47
2019-02-17T10:50:39.406Z,10.97
2019-02-17T10:53:14.442Z,8.93
2019-02-17T10:55:52.315Z,8.77
2019-02-17T10:58:24.948Z,10.60
2019-02-17T11:00:58.380Z,10.50
2019-02-17T11:03:34.163Z,9.90
2019-02-17T11:06:14.643Z,10.33
2019-02-17T11:08:42.348Z,10.33
2019-02-17T11:11:24.694Z,8.90
2019-02-17T11:13:54.550Z,7.70
2019-02-17T11:16:26.428Z,10.10
2019-02-17T11:19:01.503Z,11.20
2019-02-17T11:21:33.923Z,10.03
2019-02-17T11:24:05.361Z,10.60
2019-02-17T11:26:36.876Z,10.63
2019-02-17T11:29:07.304Z,7.93
2019-02-17T11:31:40.356Z,9.87
2019-02-17T11:34:14.583Z,8.83
2019-02-17T11:36:47.422Z,7.93
2019-02-17T11:39:18.546Z,7.67
2019-02-17T11:41:52.033Z,8.83
2019-02-17T11:44:23.607Z,8.17
2019-02-17T11:46:53.443Z,7.70
2019-02-17T11:49:27.812Z,7.53
2019-02-17T11:51:57.686Z,7.60
2019-02-17T11:54:34.130Z,6.90
2019-02-17T11:57:03.972Z,5.87
2019-02-17T11:59:36.707Z,5.53
2019-02-17T12:02:08.254Z,4.77
2019-02-17T12:04:38.125Z,5.43
2019-02-17T12:07:11.526Z,4.53
2019-02-17T12:09:45.195Z,5.77
2019-02-17T12:12:22.870Z,5.60
2019-02-17T12:14:58.627Z,6.47
2019-02-17T12:17:33.379Z,4.80
2019-02-17T12:20:06.492Z,4.63
2019-02-17T12:22:43.742Z,5.77
2019-02-17T12:25:15.269Z,4.57
2019-02-17T12:27:50.769Z,5.83
2019-02-17T12:30:25.613Z,5.50
2019-02-17T12:33:01.058Z,4.83
2019-02-17T12:35:36.701Z,4.43
2019-02-17T12:38:10.034Z,4.57
2019-02-17T12:40:42.485Z,4.30
2019-02-17T12:43:18.773Z,4.30
2019-02-17T12:45:49.929Z,3.57
2019-02-17T12:48:20.135Z,4.53
2019-02-17T12:50:53.418Z,5.47
2019-02-17T12:53:29.117Z,4.80
2019-02-17T12:56:01.155Z,4.60
2019-02-17T12:58:37.366Z,4.03
2019-02-17T13:01:16.605Z,4.30
2019-02-17T13:03:48.148Z,3.20
2019-02-17T13:06:18.721Z,3.20
2019-02-17T13:08:55.088Z,3.50
2019-02-17T13:11:29.256Z,3.80
2019-02-17T13:13:59.761Z,4.67
2019-02-17T13:16:29.803Z,4.47
2019-02-17T13:19:03.612Z,5.20
2019-02-17T13:21:41.578Z,6.03
2019-02-17T13:24:12.840Z,7.00
2019-02-17T13:26:44.001Z,7.57
2019-02-17T13:29:18.775Z,8.03
2019-02-17T13:32:04.064Z,7.97
2019-02-17T13:34:36.056Z,8.30
2019-02-17T13:37:11.735Z,7.57
2019-02-17T13:39:48.021Z,6.43
2019-02-17T13:42:27.306Z,7.10
2019-02-17T13:45:00.615Z,6.97
2019-02-17T13:47:47.049Z,7.90
2019-02-17T13:50:21.162Z,7.30
2019-02-17T13:53:11.011Z,7.93
2019-02-17T13:55:23.864Z,7.97
2019-02-17T13:58:02.036Z,8.07
2019-02-17T14:00:33.199Z,7.20
2019-02-17T14:03:08.909Z,7.47
2019-02-17T14:05:45.376Z,8.33
2019-02-17T14:08:18.425Z,7.60
2019-02-17T14:10:55.514Z,8.30
2019-02-17T14:13:38.837Z,8.47
2019-02-17T14:16:18.525Z,8.33
2019-02-17T14:19:02.012Z,7.37
2019-02-17T14:21:42.014Z,7.57
2019-02-17T14:24:16.689Z,7.50
2019-02-17T14:26:55.471Z,8.13
2019-02-17T14:29:27.311Z,6.60
2019-02-17T14:32:04.306Z,7.37
2019-02-17T14:34:39.620Z,6.60
2019-02-17T14:37:24.886Z,6.90
2019-02-17T14:43:15.568Z,6.20
2019-02-17T14:45:49.979Z,6.13
2019-02-17T14:48:42.317Z,6.73
2019-02-17T14:51:17.458Z,5.97
2019-02-17T14:53:51.536Z,6.67
2019-02-17T14:56:29.348Z,6.10
2019-02-17T14:59:02.597Z,5.33
2019-02-17T15:01:35.807Z,5.53
2019-02-17T15:04:09.398Z,4.90
2019-02-17T15:06:44.587Z,4.10
2019-02-17T15:09:20.380Z,3.23
2019-02-17T15:11:53.061Z,2.47
2019-02-17T15:14:26.601Z,3.33
2019-02-17T15:16:59.854Z,4.60
2019-02-17T15:19:36.888Z,4.10
2019-02-17T15:22:08.352Z,3.70
2019-02-17T15:24:41.140Z,3.80
2019-02-17T15:27:13.506Z,3.80
2019-02-17T15:29:49.798Z,3.40
2019-02-17T15:32:20.409Z,3.73
2019-02-17T15:34:51.382Z,3.60
2019-02-17T15:37:22.568Z,3.70
2019-02-17T15:39:54.404Z,6.43
2019-02-17T15:42:27.818Z,6.40
2019-02-17T15:45:00.518Z,7.70
2019-02-17T15:47:33.028Z,6.80
2019-02-17T15:50:16.796Z,6.87
2019-02-17T15:52:48.192Z,9.67
2019-02-17T15:55:20.683Z,10.20
2019-02-17T15:57:53.612Z,7.57
2019-02-17T16:00:25.776Z,8.13
2019-02-17T16:02:59.391Z,10.03
2019-02-17T16:05:32.774Z,11.03
2019-02-17T16:08:23.938Z,12.80
2019-02-17T16:10:56.129Z,12.53
2019-02-17T16:13:28.990Z,15.37
2019-02-17T16:16:00.333Z,13.67
2019-02-17T16:18:34.625Z,14.53
2019-02-17T16:21:07.226Z,17.50
2019-02-17T16:23:43.899Z,15.93
2019-02-17T16:26:19.140Z,13.07
2019-02-17T16:28:50.403Z,17.70
2019-02-17T16:31:29.594Z,14.23
2019-02-17T16:33:56.730Z,17.10
2019-02-17T16:36:29.960Z,17.23
2019-02-17T16:39:04.283Z,17.90
2019-02-17T16:41:36.399Z,18.03
2019-02-17T16:44:09.844Z,20.93
2019-02-17T16:46:42.892Z,18.33
2019-02-17T16:49:24.878Z,18.33
2019-02-17T16:51:56.339Z,19.07
2019-02-17T16:54:27.795Z,17.17
2019-02-17T16:57:01.345Z,20.67
2019-02-17T16:59:31.548Z,19.63
2019-02-17T17:02:04.259Z,18.50
2019-02-17T17:04:36.834Z,19.60
2019-02-17T17:07:07.345Z,17.97
2019-02-17T17:09:40.297Z,19.07
2019-02-17T17:12:11.993Z,17.90
2019-02-17T17:14:42.881Z,19.27
2019-02-17T17:17:12.719Z,19.77
2019-02-17T17:19:44.181Z,20.00
2019-02-17T17:22:17.091Z,19.40
2019-02-17T17:24:48.963Z,18.97
2019-02-17T17:27:23.769Z,20.90
2019-02-17T17:29:54.579Z,18.73
2019-02-17T17:32:49.528Z,20.37
2019-02-17T17:34:59.557Z,19.93
2019-02-17T17:37:41.052Z,18.17
2019-02-17T17:40:17.401Z,19.37
2019-02-17T17:42:50.366Z,18.67
2019-02-17T17:45:22.144Z,18.37
2019-02-17T17:48:02.445Z,18.10
2019-02-17T17:50:42.718Z,17.67
2019-02-17T17:53:15.625Z,18.93
2019-02-17T17:55:47.194Z,19.30
2019-02-17T17:58:20.990Z,20.03
2019-02-17T18:00:51.512Z,18.90
2019-02-17T18:03:21.447Z,19.80
2019-02-17T18:05:51.634Z,19.73
2019-02-17T18:08:22.546Z,17.20
2019-02-17T18:11:18.740Z,17.53
2019-02-17T18:13:35.353Z,17.20
2019-02-17T18:16:06.424Z,18.33
2019-02-17T18:18:39.671Z,17.97
2019-02-17T18:21:11.035Z,17.83
2019-02-17T18:23:42.107Z,19.93
2019-02-17T18:26:23.923Z,21.90
2019-02-17T18:28:57.563Z,18.73
2019-02-17T18:31:30.612Z,18.40
2019-02-17T18:34:07.200Z,21.10
2019-02-17T18:36:46.256Z,22.30
2019-02-17T18:39:25.082Z,24.73
2019-02-17T18:42:00.565Z,22.93
2019-02-17T18:44:35.603Z,22.27
2019-02-17T18:47:09.197Z,17.90
2019-02-17T18:49:41.051Z,19.73
2019-02-17T18:52:13.541Z,19.57
2019-02-17T18:54:48.746Z,20.03
2019-02-17T18:57:20.118Z,20.60
2019-02-17T19:02:55.475Z,21.07
2019-02-17T19:08:22.750Z,20.73
2019-02-17T19:11:14.332Z,23.47
2019-02-17T19:13:42.664Z,21.07
2019-02-17T19:16:15.093Z,24.67
2019-02-17T19:18:45.504Z,23.57
2019-02-17T19:24:16.249Z,23.37
2019-02-17T19:26:48.949Z,23.47
2019-02-17T19:29:20.904Z,22.93
2019-02-17T19:31:53.695Z,26.13
2019-02-17T19:34:26.016Z,25.97
2019-02-17T19:37:01.777Z,25.47
2019-02-17T19:39:35.253Z,29.90
2019-02-17T19:42:06.205Z,29.57
2019-02-17T19:44:36.008Z,31.47
2019-02-17T19:47:08.134Z,32.73
2019-02-17T19:49:41.218Z,30.67
2019-02-17T19:52:14.858Z,29.57
2019-02-17T19:54:51.783Z,31.17
2019-02-17T19:57:24.963Z,28.13
2019-02-17T19:59:56.233Z,30.33
2019-02-17T20:02:37.451Z,28.93
2019-02-17T20:05:14.038Z,31.13
2019-02-17T20:07:43.936Z,29.47
2019-02-17T20:10:15.278Z,30.77
2019-02-17T20:12:45.888Z,29.97
2019-02-17T20:15:18.090Z,30.53
2019-02-17T20:17:52.624Z,31.47
2019-02-17T20:20:26.783Z,23.80
2019-02-17T20:22:59.406Z,20.90
2019-02-17T20:25:30.957Z,16.53
2019-02-17T20:28:01.054Z,13.00
2019-02-17T20:30:31.859Z,12.20
2019-02-17T20:33:04.294Z,13.40
2019-02-17T20:35:35.261Z,15.33
2019-02-17T20:38:08.724Z,13.37
2019-02-17T20:40:39.198Z,13.27
2019-02-17T20:43:13.365Z,12.97
2019-02-17T20:45:44.600Z,12.10
2019-02-17T20:48:15.533Z,9.70
2019-02-17T20:50:46.383Z,10.23
2019-02-17T20:53:17.925Z,9.27
2019-02-17T20:55:49.941Z,13.67
2019-02-17T20:58:19.797Z,15.53
2019-02-17T21:00:50.809Z,15.27
2019-02-17T21:03:21.948Z,11.50
2019-02-17T21:05:51.741Z,10.10
2019-02-17T21:08:25.047Z,9.93
2019-02-17T21:10:54.888Z,8.50
2019-02-17T21:13:26.065Z,7.60
2019-02-17T21:15:56.627Z,11.03
2019-02-17T21:18:28.625Z,11.77
2019-02-17T21:20:59.180Z,8.77
2019-02-17T21:23:29.035Z,8.63
2019-02-17T21:26:02.907Z,6.97
2019-02-17T21:28:32.783Z,6.13
2019-02-17T21:31:05.110Z,5.80
2019-02-17T21:33:43.935Z,7.23
2019-02-17T21:36:22.890Z,7.00
2019-02-17T21:38:49.671Z,6.50
2019-02-17T21:41:19.517Z,8.40
2019-02-17T21:43:58.966Z,11.00
2019-02-17T21:46:34.352Z,11.17
2019-02-17T21:49:05.611Z,13.80
2019-02-17T21:51:35.509Z,14.20
2019-02-17T21:54:06.131Z,15.87
2019-02-17T21:56:36.769Z,16.50
2019-02-17T21:59:06.753Z,15.63
2019-02-17T22:01:38.051Z,12.23
2019-02-17T22:04:08.247Z,11.87
2019-02-17T22:06:39.228Z,19.03
2019-02-17T22:09:13.509Z,18.57
2019-02-17T22:11:44.841Z,18.20
2019-02-17T22:14:17.653Z,15.43
2019-02-17T22:16:49.041Z,13.30
2019-02-17T22:19:20.591Z,14.23
2019-02-17T22:21:55.600Z,13.10
2019-02-17T22:24:25.476Z,16.90
2019-02-17T22:26:57.196Z,19.30
2019-02-17T22:29:27.099Z,18.90
2019-02-17T22:32:01.727Z,23.33
2019-02-17T22:34:42.314Z,17.43
2019-02-17T22:37:12.679Z,15.50
2019-02-17T22:39:45.919Z,18.63
2019-02-17T22:42:15.744Z,19.53
2019-02-17T22:44:49.332Z,19.97
2019-02-17T22:47:21.420Z,22.97
2019-02-17T22:49:51.776Z,21.63
2019-02-17T22:52:22.815Z,20.33
2019-02-17T22:55:00.053Z,20.20
2019-02-17T22:57:27.695Z,20.67
2019-02-17T23:00:00.481Z,17.23
2019-02-17T23:02:30.736Z,18.83
2019-02-17T23:05:02.734Z,19.10
2019-02-17T23:07:36.365Z,18.93
2019-02-17T23:10:09.960Z,21.13
2019-02-17T23:12:43.924Z,20.07
2019-02-17T23:15:16.840Z,18.00
2019-02-17T23:17:49.971Z,20.63
2019-02-17T23:20:20.730Z,17.80
2019-02-17T23:22:58.198Z,19.80
2019-02-17T23:25:30.886Z,18.37
2019-02-17T23:28:07.707Z,20.13
2019-02-17T23:30:38.804Z,18.70
2019-02-17T23:33:14.460Z,20.30
2019-02-17T23:35:48.109Z,19.80
2019-02-17T23:38:28.324Z,18.20
2019-02-17T23:41:02.124Z,14.20
2019-02-17T23:43:37.762Z,10.57
2019-02-17T23:46:10.640Z,7.73
2019-02-17T23:48:47.789Z,6.53
2019-02-17T23:51:18.918Z,5.50
2019-02-17T23:53:53.186Z,4.90
2019-02-17T23:56:24.532Z,5.23
2019-02-17T23:58:55.892Z,5.37
